createdAt,value
2019-04-06T00:01:14.164Z,61.00
2019-04-06T00:03:44.141Z,52.40
2019-04-06T00:06:13.905Z,53.10
2019-04-06T00:08:43.706Z,55.20
2019-04-06T00:11:15.437Z,59.40
2019-04-06T00:13:45.277Z,53.77
2019-04-06T00:16:15.087Z,55.83
2019-04-06T00:18:45.367Z,56.20
2019-04-06T00:21:15.070Z,55.67
2019-04-06T00:23:44.922Z,54.77
2019-04-06T00:26:14.709Z,54.83
2019-04-06T00:28:44.491Z,52.73
2019-04-06T00:31:15.903Z,56.00
2019-04-06T00:33:45.736Z,55.53
2019-04-06T00:36:15.658Z,59.33
2019-04-06T00:38:45.518Z,58.07
2019-04-06T00:41:15.329Z,56.53
2019-04-06T00:43:45.152Z,54.03
2019-04-06T00:46:14.971Z,51.10
2019-04-06T00:48:44.657Z,48.93
2019-04-06T00:51:14.495Z,51.40
2019-04-06T00:53:44.244Z,54.80
2019-04-06T00:56:13.968Z,52.97
2019-04-06T00:58:43.680Z,52.57
2019-04-06T01:01:13.766Z,50.80
2019-04-06T01:03:43.681Z,50.43
2019-04-06T01:06:13.507Z,49.93
2019-04-06T01:08:43.390Z,52.50
2019-04-06T01:11:13.133Z,55.07
2019-04-06T01:13:42.971Z,49.87
2019-04-06T01:16:12.745Z,53.70
2019-04-06T01:18:42.590Z,51.13
2019-04-06T01:21:12.350Z,50.03
2019-04-06T01:23:42.203Z,53.67
2019-04-06T01:26:12.060Z,53.63
2019-04-06T01:28:41.774Z,55.30
2019-04-06T01:31:11.528Z,55.00
2019-04-06T01:33:41.300Z,57.50
2019-04-06T01:36:11.121Z,50.30
2019-04-06T01:38:41.026Z,52.60
2019-04-06T01:41:10.810Z,52.20
2019-04-06T01:43:40.550Z,51.13
2019-04-06T01:46:10.372Z,50.77
2019-04-06T01:48:40.198Z,52.47
2019-04-06T01:51:10.039Z,50.77
2019-04-06T01:53:39.850Z,53.13
2019-04-06T01:56:17.871Z,50.07
2019-04-06T01:58:41.122Z,50.30
2019-04-06T02:01:27.310Z,50.87
2019-04-06T02:03:57.030Z,51.70
2019-04-06T02:06:26.892Z,50.03
2019-04-06T02:08:56.712Z,46.53
2019-04-06T02:11:26.499Z,48.37
2019-04-06T02:13:56.255Z,46.43
2019-04-06T02:16:25.983Z,46.27
2019-04-06T02:18:55.718Z,44.30
2019-04-06T02:21:25.509Z,44.93
2019-04-06T02:23:55.376Z,51.37
2019-04-06T02:26:30.947Z,49.17
2019-04-06T02:28:56.701Z,47.07
2019-04-06T02:31:28.064Z,44.80
2019-04-06T02:33:59.525Z,42.07
2019-04-06T02:36:42.868Z,44.53
2019-04-06T02:39:30.249Z,49.73
2019-04-06T02:42:04.649Z,46.70
2019-04-06T02:44:34.417Z,45.97
2019-04-06T02:47:04.091Z,48.50
2019-04-06T02:49:33.799Z,49.93
2019-04-06T02:52:03.730Z,49.90
2019-04-06T02:54:33.522Z,49.83
2019-04-06T02:57:03.536Z,48.20
2019-04-06T02:59:33.450Z,47.77
2019-04-06T03:02:03.195Z,48.37
2019-04-06T03:04:33.125Z,49.40
2019-04-06T03:07:02.977Z,47.00
2019-04-06T03:09:32.836Z,50.07
2019-04-06T03:12:02.973Z,51.05
2019-04-06T03:14:32.891Z,48.10
2019-04-06T03:17:02.726Z,48.00
2019-04-06T03:19:32.650Z,48.93
2019-04-06T03:22:02.480Z,51.73
2019-04-06T03:24:32.285Z,44.90
2019-04-06T03:27:02.951Z,47.57
2019-04-06T03:29:33.014Z,50.83
2019-04-06T03:32:02.721Z,45.43
2019-04-06T03:34:32.487Z,45.40
2019-04-06T03:37:02.301Z,52.80
2019-04-06T03:39:32.358Z,48.90
2019-04-06T03:42:02.277Z,51.90
2019-04-06T03:44:32.058Z,46.97
2019-04-06T03:47:01.761Z,49.07
2019-04-06T03:49:31.680Z,53.13
2019-04-06T03:52:01.352Z,49.20
2019-04-06T03:54:31.056Z,49.60
2019-04-06T03:57:13.969Z,53.13
2019-04-06T03:59:32.098Z,52.47
2019-04-06T04:02:01.965Z,51.27
2019-04-06T04:04:31.506Z,51.30
2019-04-06T04:07:01.330Z,50.67
2019-04-06T04:09:31.066Z,52.60
2019-04-06T04:12:00.861Z,50.53
2019-04-06T04:14:30.515Z,50.53
2019-04-06T04:17:00.340Z,50.80
2019-04-06T04:19:30.016Z,49.40
2019-04-06T04:21:59.777Z,52.37
2019-04-06T04:24:29.478Z,51.13
2019-04-06T04:26:59.291Z,46.93
2019-04-06T04:29:29.009Z,50.00
2019-04-06T04:31:58.708Z,50.43
2019-04-06T04:34:28.619Z,46.23
2019-04-06T04:36:58.626Z,49.87
2019-04-06T04:39:28.469Z,47.03
2019-04-06T04:41:58.216Z,49.07
2019-04-06T04:44:27.979Z,50.90
2019-04-06T04:46:57.676Z,46.23
2019-04-06T04:49:27.373Z,45.70
2019-04-06T04:51:57.055Z,47.17
2019-04-06T04:54:26.890Z,52.60
2019-04-06T04:56:56.598Z,45.40
2019-04-06T04:59:26.343Z,45.50
2019-04-06T05:01:56.048Z,45.60
2019-04-06T05:04:25.747Z,52.57
2019-04-06T05:06:55.461Z,48.53
2019-04-06T05:09:25.139Z,47.60
2019-04-06T05:11:54.827Z,50.90
2019-04-06T05:14:57.333Z,54.50
2019-04-06T05:17:27.475Z,48.60
2019-04-06T05:19:57.828Z,49.90
2019-04-06T05:22:27.771Z,51.17
2019-04-06T05:24:57.822Z,52.13
2019-04-06T05:27:27.728Z,51.87
2019-04-06T05:29:57.533Z,50.60
2019-04-06T05:32:27.440Z,119.43
2019-04-06T05:34:58.383Z,48.70
2019-04-06T05:37:28.301Z,52.17
2019-04-06T05:39:57.962Z,50.30
2019-04-06T05:42:27.705Z,50.97
2019-04-06T05:44:57.375Z,49.70
2019-04-06T05:47:27.149Z,47.57
2019-04-06T05:49:57.139Z,50.80
2019-04-06T05:52:27.111Z,49.90
2019-04-06T05:54:56.869Z,48.17
2019-04-06T05:57:26.968Z,49.30
2019-04-06T05:59:56.776Z,46.33
2019-04-06T06:02:26.882Z,45.30
2019-04-06T06:04:56.773Z,40.40
2019-04-06T06:07:26.482Z,49.33
2019-04-06T06:09:56.197Z,46.53
2019-04-06T06:12:25.871Z,46.77
2019-04-06T06:14:55.635Z,46.20
2019-04-06T06:17:25.586Z,39.37
2019-04-06T06:19:55.298Z,45.43
2019-04-06T06:22:24.993Z,39.87
2019-04-06T06:24:54.747Z,42.03
2019-04-06T06:27:24.556Z,40.00
2019-04-06T06:29:54.222Z,42.50
2019-04-06T06:32:23.949Z,42.73
2019-04-06T06:34:53.661Z,45.93
2019-04-06T06:37:23.425Z,40.90
2019-04-06T06:39:53.434Z,41.67
2019-04-06T06:42:23.190Z,43.50
2019-04-06T06:44:53.227Z,44.43
2019-04-06T06:47:22.962Z,44.17
2019-04-06T06:49:52.852Z,42.23
2019-04-06T06:52:22.532Z,41.37
2019-04-06T06:54:52.555Z,45.43
2019-04-06T06:57:22.246Z,42.87
2019-04-06T06:59:52.122Z,48.33
2019-04-06T07:02:22.016Z,41.07
2019-04-06T07:04:51.691Z,36.73
2019-04-06T07:07:21.409Z,42.10
2019-04-06T07:09:51.165Z,39.70
2019-04-06T07:12:20.848Z,36.40
2019-04-06T07:14:50.799Z,48.53
2019-04-06T07:17:20.603Z,41.17
2019-04-06T07:19:50.255Z,39.77
2019-04-06T07:22:19.988Z,38.43
2019-04-06T07:24:49.903Z,40.60
2019-04-06T07:27:19.578Z,41.30
2019-04-06T07:29:49.297Z,40.27
2019-04-06T07:32:19.108Z,39.60
2019-04-06T07:34:50.494Z,34.67
2019-04-06T07:37:20.427Z,37.10
2019-04-06T07:39:50.204Z,55.43
2019-04-06T07:42:20.068Z,38.50
2019-04-06T07:44:49.986Z,38.20
2019-04-06T07:47:19.918Z,39.80
2019-04-06T07:49:49.646Z,35.83
2019-04-06T07:52:19.671Z,35.43
2019-04-06T07:54:49.926Z,34.03
2019-04-06T07:57:19.635Z,39.77
2019-04-06T07:59:49.323Z,35.63
2019-04-06T08:02:19.101Z,34.07
2019-04-06T08:04:48.852Z,33.67
2019-04-06T08:07:18.534Z,36.93
2019-04-06T08:09:48.336Z,35.40
2019-04-06T08:12:18.118Z,31.77
2019-04-06T08:14:48.201Z,32.73
2019-04-06T08:17:17.936Z,35.93
2019-04-06T08:19:47.577Z,35.00
2019-04-06T08:22:17.424Z,30.07
2019-04-06T08:24:47.134Z,32.93
2019-04-06T08:27:16.991Z,33.00
2019-04-06T08:29:46.721Z,30.30
2019-04-06T08:32:16.548Z,33.60
2019-04-06T08:34:46.264Z,37.03
2019-04-06T08:37:15.945Z,29.77
2019-04-06T08:39:45.875Z,33.23
2019-04-06T08:42:15.593Z,31.87
2019-04-06T08:44:45.639Z,33.47
2019-04-06T08:47:15.315Z,33.13
2019-04-06T08:49:45.163Z,33.13
2019-04-06T08:52:14.927Z,32.30
2019-04-06T08:54:45.717Z,32.90
2019-04-06T08:57:15.388Z,29.03
2019-04-06T08:59:45.246Z,34.17
2019-04-06T09:02:15.032Z,30.23
2019-04-06T09:04:44.792Z,32.43
2019-04-06T09:07:14.976Z,31.13
2019-04-06T09:09:44.805Z,29.87
2019-04-06T09:12:14.500Z,30.53
2019-04-06T09:14:44.451Z,34.10
2019-04-06T09:17:14.343Z,27.87
2019-04-06T09:19:44.258Z,31.33
2019-04-06T09:22:14.248Z,29.67
2019-04-06T09:24:44.203Z,27.53
2019-04-06T09:27:14.003Z,30.40
2019-04-06T09:29:43.848Z,28.13
2019-04-06T09:32:13.705Z,26.23
2019-04-06T09:34:43.664Z,26.60
2019-04-06T09:37:13.426Z,30.43
2019-04-06T09:39:43.128Z,30.50
2019-04-06T09:42:13.061Z,31.03
2019-04-06T09:44:48.353Z,28.90
2019-04-06T09:47:22.344Z,29.77
2019-04-06T09:50:09.858Z,31.93
2019-04-06T09:52:41.280Z,31.67
2019-04-06T09:55:12.703Z,28.37
2019-04-06T09:57:46.969Z,31.43
2019-04-06T10:00:21.952Z,31.20
2019-04-06T10:03:05.745Z,34.37
2019-04-06T10:05:37.308Z,34.47
2019-04-06T10:08:22.779Z,30.30
2019-04-06T10:11:02.776Z,28.47
2019-04-06T10:13:40.115Z,31.33
2019-04-06T10:16:14.129Z,30.53
2019-04-06T10:18:46.761Z,32.43
2019-04-06T10:21:16.406Z,32.70
2019-04-06T10:23:50.973Z,33.67
2019-04-06T10:26:20.531Z,30.40
2019-04-06T10:28:57.600Z,30.70
2019-04-06T10:31:43.468Z,30.07
2019-04-06T10:34:25.195Z,32.37
2019-04-06T10:36:56.683Z,34.10
2019-04-06T10:39:30.880Z,32.07
2019-04-06T10:42:05.214Z,33.20
2019-04-06T10:44:52.785Z,31.77
2019-04-06T10:47:26.936Z,34.00
2019-04-06T10:50:04.685Z,33.93
2019-04-06T10:52:41.694Z,31.67
2019-04-06T10:55:29.288Z,33.23
2019-04-06T10:58:04.843Z,33.80
2019-04-06T11:00:38.807Z,33.30
2019-04-06T11:03:10.163Z,32.17
2019-04-06T11:05:57.215Z,32.83
2019-04-06T11:08:34.468Z,34.97
2019-04-06T11:11:05.911Z,31.23
2019-04-06T11:13:38.012Z,32.80
2019-04-06T11:16:25.679Z,29.57
2019-04-06T11:19:06.225Z,33.93
2019-04-06T11:21:44.932Z,30.80
2019-04-06T11:24:16.600Z,35.17
2019-04-06T11:26:46.101Z,31.00
2019-04-06T11:29:24.891Z,33.27
2019-04-06T11:31:56.291Z,33.03
2019-04-06T11:34:33.345Z,35.37
2019-04-06T11:37:20.828Z,35.03
2019-04-06T11:40:08.365Z,34.03
2019-04-06T11:42:55.815Z,35.20
2019-04-06T11:45:39.525Z,33.60
2019-04-06T11:48:11.759Z,34.77
2019-04-06T11:51:01.218Z,35.20
2019-04-06T11:53:35.220Z,33.60
2019-04-06T11:56:15.614Z,34.23
2019-04-06T11:59:03.651Z,38.53
2019-04-06T12:01:35.174Z,33.33
2019-04-06T12:04:09.498Z,38.17
2019-04-06T12:06:41.184Z,33.40
2019-04-06T12:09:12.857Z,35.57
2019-04-06T12:11:44.396Z,37.37
2019-04-06T12:14:22.060Z,39.23
2019-04-06T12:16:53.624Z,38.20
2019-04-06T12:19:27.971Z,37.87
2019-04-06T12:22:00.505Z,35.13
2019-04-06T12:24:40.725Z,36.60
2019-04-06T12:27:28.031Z,37.80
2019-04-06T12:29:57.573Z,35.87
2019-04-06T12:32:47.403Z,32.60
2019-04-06T12:35:34.400Z,34.67
2019-04-06T12:38:08.755Z,38.80
2019-04-06T12:40:41.183Z,38.63
2019-04-06T12:43:31.297Z,37.03
2019-04-06T12:46:17.978Z,33.87
2019-04-06T12:48:52.536Z,35.10
2019-04-06T12:51:39.585Z,37.17
2019-04-06T13:32:13.378Z,33.10
2019-04-06T13:34:47.691Z,35.77
2019-04-06T13:37:17.478Z,35.20
2019-04-06T13:39:52.117Z,35.47
2019-04-06T13:42:32.487Z,34.23
2019-04-06T13:45:03.963Z,36.67
2019-04-06T13:47:33.569Z,38.37
2019-04-06T13:50:15.846Z,34.63
2019-04-06T13:52:47.158Z,35.30
2019-04-06T13:55:25.535Z,41.37
2019-04-06T13:57:59.462Z,36.00
2019-04-06T14:00:46.951Z,35.10
2019-04-06T14:03:23.935Z,32.60
2019-04-06T14:05:58.431Z,37.10
2019-04-06T14:08:38.632Z,30.70
2019-04-06T14:11:08.196Z,31.40
2019-04-06T14:13:51.529Z,30.20
2019-04-06T14:16:28.875Z,30.03
2019-04-06T14:19:16.298Z,29.40
2019-04-06T14:21:50.757Z,31.67
2019-04-06T14:24:22.802Z,30.90
2019-04-06T14:27:01.895Z,33.27
2019-04-06T14:29:51.621Z,30.43
2019-04-06T14:32:25.951Z,34.57
2019-04-06T14:35:12.033Z,32.73
2019-04-06T14:37:53.687Z,29.60
2019-04-06T14:40:29.252Z,31.97
2019-04-06T14:43:08.096Z,31.93
2019-04-06T14:45:40.220Z,31.73
2019-04-06T14:48:15.431Z,33.23
2019-04-06T14:50:49.634Z,33.77
2019-04-06T14:53:23.986Z,30.87
2019-04-06T14:55:55.638Z,29.20
2019-04-06T14:58:30.196Z,28.07
2019-04-06T15:01:10.875Z,29.80
2019-04-06T15:03:59.062Z,28.53
2019-04-06T15:06:28.673Z,27.50
2019-04-06T15:09:01.044Z,26.03
2019-04-06T15:11:30.707Z,22.70
2019-04-06T15:14:00.211Z,26.63
2019-04-06T15:16:45.008Z,24.43
2019-04-06T15:19:18.016Z,25.37
2019-04-06T15:22:01.562Z,23.10
2019-04-06T15:24:32.929Z,24.07
2019-04-06T15:27:05.053Z,20.37
2019-04-06T15:29:48.303Z,21.47
2019-04-06T15:32:30.078Z,23.83
2019-04-06T15:35:17.438Z,20.80
2019-04-06T15:37:49.322Z,19.33
2019-04-06T15:40:29.929Z,21.50
2019-04-06T15:43:10.236Z,19.70
2019-04-06T15:45:48.073Z,16.23
2019-04-06T15:48:20.399Z,21.87
2019-04-06T15:50:52.378Z,19.50
2019-04-06T15:53:21.881Z,22.23
2019-04-06T15:55:59.420Z,29.13
2019-04-06T15:58:30.788Z,22.20
2019-04-06T16:01:09.365Z,21.83
2019-04-06T16:03:47.524Z,21.97
2019-04-06T16:06:19.716Z,19.27
2019-04-06T16:08:57.110Z,16.30
2019-04-06T16:11:28.644Z,21.80
2019-04-06T16:14:08.509Z,17.37
2019-04-06T16:16:41.026Z,16.97
2019-04-06T16:19:15.333Z,17.87
2019-04-06T16:21:49.689Z,18.40
2019-04-06T16:24:23.950Z,18.10
2019-04-06T16:26:55.385Z,17.23
2019-04-06T16:29:32.974Z,17.13
2019-04-06T16:32:15.041Z,17.33
2019-04-06T16:34:47.143Z,17.50
2019-04-06T16:37:18.493Z,18.87
2019-04-06T16:39:53.577Z,17.00
2019-04-06T16:42:37.367Z,17.63
2019-04-06T16:45:12.377Z,20.30
2019-04-06T16:48:02.155Z,21.67
2019-04-06T16:50:42.683Z,21.43
2019-04-06T16:53:25.869Z,22.30
2019-04-06T16:56:15.097Z,19.10
2019-04-06T16:58:55.384Z,18.40
2019-04-06T17:01:35.614Z,20.90
2019-04-06T17:04:23.782Z,21.07
2019-04-06T17:07:00.785Z,20.40
2019-04-06T17:09:34.447Z,20.77
2019-04-06T17:12:06.383Z,20.97
2019-04-06T17:14:54.189Z,21.87
2019-04-06T17:17:41.889Z,24.33
2019-04-06T17:20:13.663Z,23.60
2019-04-06T17:23:01.209Z,26.10
2019-04-06T17:25:33.003Z,26.87
2019-04-06T17:28:20.169Z,25.33
2019-04-06T17:30:51.927Z,28.60
2019-04-06T17:33:23.571Z,31.30
2019-04-06T17:35:55.271Z,36.93
2019-04-06T17:38:39.765Z,36.67
2019-04-06T17:41:11.398Z,39.13
2019-04-06T17:43:58.991Z,37.60
2019-04-06T17:46:31.569Z,45.67
2019-04-06T17:49:03.413Z,39.07
2019-04-06T17:51:37.335Z,42.90
2019-04-06T17:54:24.752Z,44.27
2019-04-06T17:57:12.311Z,46.83
2019-04-06T18:00:00.065Z,48.03
2019-04-06T18:02:31.532Z,44.10
2019-04-06T18:05:05.627Z,51.17
2019-04-06T18:07:37.055Z,45.30
2019-04-06T18:10:09.351Z,47.33
2019-04-06T18:12:56.744Z,45.43
2019-04-06T18:15:26.613Z,47.87
2019-04-06T18:17:56.441Z,48.17
2019-04-06T18:20:26.302Z,49.33
2019-04-06T18:22:56.140Z,44.30
2019-04-06T18:25:25.864Z,46.13
2019-04-06T18:27:56.186Z,43.70
2019-04-06T18:30:25.987Z,45.80
2019-04-06T18:33:07.213Z,53.20
2019-04-06T18:35:37.135Z,52.30
2019-04-06T18:38:20.968Z,50.80
2019-04-06T18:40:51.484Z,46.10
2019-04-06T18:43:21.733Z,46.83
2019-04-06T18:45:51.508Z,50.73
2019-04-06T18:48:21.362Z,48.97
2019-04-06T18:50:51.748Z,49.87
2019-04-06T18:53:21.997Z,50.17
2019-04-06T18:55:51.993Z,51.03
2019-04-06T18:58:22.046Z,51.13
2019-04-06T19:00:51.862Z,49.53
2019-04-06T19:03:22.012Z,51.27
2019-04-06T19:05:52.197Z,50.07
2019-04-06T19:08:21.915Z,50.13
2019-04-06T19:10:52.560Z,47.97
2019-04-06T19:13:23.221Z,54.40
2019-04-06T19:15:53.548Z,48.00
2019-04-06T19:18:23.225Z,48.03
2019-04-06T19:20:53.001Z,50.37
2019-04-06T19:23:22.961Z,52.13
2019-04-06T19:25:52.822Z,53.17
2019-04-06T19:28:22.551Z,53.80
2019-04-06T19:30:52.365Z,54.90
2019-04-06T19:33:25.458Z,50.33
2019-04-06T19:35:53.597Z,55.40
2019-04-06T19:38:23.400Z,56.07
2019-04-06T19:40:53.135Z,54.27
2019-04-06T19:43:22.946Z,57.00
2019-04-06T19:45:52.947Z,59.10
2019-04-06T19:48:22.843Z,58.67
2019-04-06T19:50:53.195Z,55.83
2019-04-06T19:53:23.267Z,55.83
2019-04-06T19:55:53.119Z,59.47
2019-04-06T19:58:22.958Z,57.30
2019-04-06T20:00:52.791Z,56.47
2019-04-06T20:03:33.678Z,55.00
2019-04-06T20:05:54.255Z,54.90
2019-04-06T20:08:24.160Z,56.50
2019-04-06T20:10:54.330Z,56.13
2019-04-06T20:13:24.830Z,56.30
2019-04-06T20:15:54.731Z,53.73
2019-04-06T20:18:24.622Z,56.07
2019-04-06T20:20:55.187Z,58.57
2019-04-06T20:23:25.394Z,65.23
2019-04-06T20:25:55.667Z,55.93
2019-04-06T20:28:25.529Z,57.80
2019-04-06T20:30:55.523Z,57.50
2019-04-06T20:33:25.194Z,58.37
2019-04-06T20:35:55.452Z,56.77
2019-04-06T20:38:25.163Z,58.53
2019-04-06T20:40:55.013Z,57.40
2019-04-06T20:43:24.865Z,59.27
2019-04-06T20:45:55.326Z,54.93
2019-04-06T20:48:25.056Z,57.13
2019-04-06T20:50:55.098Z,55.37
2019-04-06T20:53:25.295Z,59.80
2019-04-06T20:55:55.352Z,59.63
2019-04-06T20:58:25.003Z,62.03
2019-04-06T21:00:56.441Z,53.53
2019-04-06T21:03:26.544Z,61.27
2019-04-06T21:05:56.494Z,61.70
2019-04-06T21:08:26.413Z,61.37
2019-04-06T21:10:56.627Z,59.03
2019-04-06T21:13:26.746Z,65.20
2019-04-06T21:15:56.635Z,66.60
2019-04-06T21:18:26.685Z,60.80
2019-04-06T21:20:56.403Z,58.40
2019-04-06T21:23:26.313Z,57.53
2019-04-06T21:25:56.094Z,56.33
2019-04-06T21:28:26.002Z,58.30
2019-04-06T21:30:56.489Z,60.97
2019-04-06T21:33:26.706Z,58.67
2019-04-06T21:35:56.583Z,58.20
2019-04-06T21:38:26.735Z,62.70
2019-04-06T21:40:57.022Z,59.80
2019-04-06T21:43:26.797Z,59.03
2019-04-06T21:45:56.823Z,59.77
2019-04-06T21:48:27.015Z,56.93
2019-04-06T21:50:57.244Z,62.33
2019-04-06T21:53:27.472Z,58.13
2019-04-06T21:56:04.159Z,60.63
2019-04-06T21:58:29.738Z,59.03
2019-04-06T22:01:01.401Z,59.13
2019-04-06T22:03:31.430Z,61.37
2019-04-06T22:06:01.541Z,56.63
2019-04-06T22:08:31.768Z,59.97
2019-04-06T22:11:01.792Z,56.97
2019-04-06T22:13:31.819Z,61.07
2019-04-06T22:16:01.879Z,59.73
2019-04-06T22:18:31.739Z,60.27
2019-04-06T22:21:01.509Z,61.37
2019-04-06T22:23:40.990Z,59.00
2019-04-06T22:26:03.173Z,59.67
2019-04-06T22:28:33.245Z,60.53
2019-04-06T22:31:03.155Z,61.20
2019-04-06T22:33:33.165Z,62.87
2019-04-06T22:36:03.288Z,59.00
2019-04-06T22:38:33.183Z,52.77
2019-04-06T22:41:03.554Z,60.40
2019-04-06T22:43:33.459Z,57.53
2019-04-06T22:46:03.266Z,56.37
2019-04-06T22:48:33.560Z,53.77
2019-04-06T22:51:03.472Z,59.33
2019-04-06T22:53:33.349Z,53.13
2019-04-06T22:56:03.400Z,56.03
2019-04-06T22:58:33.400Z,56.90
2019-04-06T23:01:05.404Z,56.53
2019-04-06T23:03:36.960Z,54.83
2019-04-06T23:06:10.876Z,54.97
2019-04-06T23:08:40.728Z,52.53
2019-04-06T23:11:10.555Z,49.57
2019-04-06T23:13:40.372Z,54.60
2019-04-06T23:16:10.358Z,49.73
2019-04-06T23:18:40.186Z,46.60
2019-04-06T23:21:09.992Z,45.10
2019-04-06T23:23:39.796Z,46.07
2019-04-06T23:26:10.070Z,47.33
2019-04-06T23:28:39.921Z,46.97
2019-04-06T23:31:09.737Z,49.03
2019-04-06T23:33:39.669Z,44.13
2019-04-06T23:36:09.965Z,49.03
2019-04-06T23:38:39.834Z,46.83
2019-04-06T23:41:09.786Z,46.13
2019-04-06T23:43:39.677Z,50.37
2019-04-06T23:46:09.833Z,47.13
2019-04-06T23:48:39.667Z,45.00
2019-04-06T23:51:09.491Z,47.37
2019-04-06T23:53:39.866Z,48.80
2019-04-06T23:56:10.118Z,48.43
2019-04-06T23:58:39.988Z,45.87
